createdAt,value
2024-01-11T00:00:56.009Z,26.40
2024-01-11T00:01:55.938Z,25.80
2024-01-11T00:02:55.959Z,27.10
2024-01-11T00:03:55.902Z,25.80
2024-01-11T00:04:55.962Z,26.50
2024-01-11T00:05:55.957Z,26.20
2024-01-11T00:06:55.984Z,25.40
2024-01-11T00:07:55.884Z,27.80
2024-01-11T00:08:55.881Z,25.60
2024-01-11T00:09:55.817Z,26.20
2024-01-11T00:10:57.309Z,26.70
2024-01-11T00:11:55.824Z,26.50
2024-01-11T00:12:55.806Z,26.10
2024-01-11T00:13:55.894Z,26.30
2024-01-11T00:14:55.798Z,27.20
2024-01-11T00:15:55.817Z,26.90
2024-01-11T00:16:55.774Z,27.50
2024-01-11T00:17:55.819Z,26.40
2024-01-11T00:18:55.747Z,26.10
2024-01-11T00:19:55.803Z,26.80
2024-01-11T00:20:55.685Z,26.20
2024-01-11T00:21:55.698Z,27.30
2024-01-11T00:22:55.734Z,27.50
2024-01-11T00:23:55.653Z,27.50
2024-01-11T00:24:55.658Z,27.20
2024-01-11T00:25:56.633Z,26.90
2024-01-11T00:26:55.693Z,28.30
2024-01-11T00:27:55.603Z,26.90
2024-01-11T00:28:55.612Z,27.90
2024-01-11T00:29:55.581Z,28.50
2024-01-11T00:30:55.677Z,28.50
2024-01-11T00:31:55.585Z,26.40
2024-01-11T00:32:55.646Z,28.20
2024-01-11T00:33:55.757Z,27.20
2024-01-11T00:34:55.570Z,27.70
2024-01-11T00:35:55.478Z,27.60
2024-01-11T00:36:55.514Z,27.30
2024-01-11T00:37:55.506Z,27.70
2024-01-11T00:38:55.489Z,28.70
2024-01-11T00:39:55.439Z,27.30
2024-01-11T00:40:55.479Z,27.10
2024-01-11T00:41:55.397Z,28.00
2024-01-11T00:42:55.456Z,27.90
2024-01-11T00:43:55.458Z,26.40
2024-01-11T00:44:55.430Z,27.60
2024-01-11T00:45:55.396Z,28.80
2024-01-11T00:46:55.414Z,27.90
2024-01-11T00:47:55.449Z,28.60
2024-01-11T00:48:56.853Z,27.20
2024-01-11T00:49:55.396Z,28.20
2024-01-11T00:50:55.342Z,27.60
2024-01-11T00:51:55.325Z,29.40
2024-01-11T00:52:55.360Z,28.10
2024-01-11T00:53:55.261Z,29.20
2024-01-11T00:54:55.286Z,27.90
2024-01-11T00:55:55.378Z,28.50
2024-01-11T00:56:55.268Z,29.40
2024-01-11T00:57:55.219Z,29.60
2024-01-11T00:58:55.273Z,27.60
2024-01-11T00:59:56.169Z,29.30
2024-01-11T01:00:55.269Z,27.60
2024-01-11T01:01:55.243Z,29.10
2024-01-11T01:02:55.164Z,27.60
2024-01-11T01:03:55.196Z,28.50
2024-01-11T01:04:55.192Z,27.90
2024-01-11T01:05:55.296Z,28.80
2024-01-11T01:06:55.135Z,28.40
2024-01-11T01:07:55.698Z,28.30
2024-01-11T01:08:55.126Z,26.70
2024-01-11T01:09:55.051Z,28.60
2024-01-11T01:10:55.162Z,28.30
2024-01-11T01:11:55.057Z,27.40
2024-01-11T01:12:55.060Z,28.60
2024-01-11T01:13:55.042Z,28.50
2024-01-11T01:14:55.140Z,30.20
2024-01-11T01:15:55.671Z,29.00
2024-01-11T01:16:55.053Z,28.50
2024-01-11T01:17:55.144Z,29.20
2024-01-11T01:18:55.080Z,29.00
2024-01-11T01:19:54.989Z,27.80
2024-01-11T01:20:54.996Z,27.70
2024-01-11T01:21:55.001Z,29.00
2024-01-11T01:22:54.973Z,28.30
2024-01-11T01:23:55.480Z,27.90
2024-01-11T01:24:54.968Z,27.40
2024-01-11T01:25:54.954Z,28.00
2024-01-11T01:26:54.909Z,29.50
2024-01-11T01:27:54.834Z,28.80
2024-01-11T01:28:54.895Z,29.80
2024-01-11T01:29:54.833Z,29.10
2024-01-11T01:30:54.877Z,27.70
2024-01-11T01:31:54.803Z,28.60
2024-01-11T01:32:54.999Z,28.00
2024-01-11T01:33:54.840Z,28.30
2024-01-11T01:34:54.968Z,28.00
2024-01-11T01:35:54.735Z,27.10
2024-01-11T01:36:54.788Z,27.90
2024-01-11T01:37:54.768Z,28.30
2024-01-11T01:38:54.720Z,29.40
2024-01-11T01:39:54.698Z,29.30
2024-01-11T01:40:54.760Z,29.80
2024-01-11T01:41:54.720Z,30.40
2024-01-11T01:42:54.671Z,29.50
2024-01-11T01:43:54.690Z,30.00
2024-01-11T01:44:54.655Z,30.20
2024-01-11T01:45:54.613Z,29.10
2024-01-11T01:46:54.708Z,29.30
2024-01-11T01:47:54.669Z,29.30
2024-01-11T01:48:54.661Z,28.30
2024-01-11T01:49:54.643Z,28.90
2024-01-11T01:50:54.593Z,28.60
2024-01-11T01:51:54.551Z,29.70
2024-01-11T01:52:54.615Z,28.60
2024-01-11T01:53:54.540Z,30.20
2024-01-11T01:54:54.515Z,29.30
2024-01-11T01:55:54.528Z,29.40
2024-01-11T01:56:54.506Z,30.10
2024-01-11T01:57:54.503Z,29.10
2024-01-11T01:58:54.543Z,28.70
2024-01-11T01:59:54.461Z,29.30
2024-01-11T02:00:54.503Z,29.00
2024-01-11T02:01:54.468Z,29.70
2024-01-11T02:02:54.537Z,29.20
2024-01-11T02:03:54.431Z,28.30
2024-01-11T02:04:54.506Z,29.60
2024-01-11T02:05:54.430Z,29.30
2024-01-11T02:06:54.418Z,29.10
2024-01-11T02:07:54.397Z,29.30
2024-01-11T02:08:54.356Z,29.20
2024-01-11T02:09:54.337Z,29.40
2024-01-11T02:10:54.390Z,29.40
2024-01-11T02:11:54.303Z,29.10
2024-01-11T02:12:54.325Z,28.00
2024-01-11T02:13:54.339Z,29.30
2024-01-11T02:14:54.294Z,28.40
2024-01-11T02:15:54.234Z,29.00
2024-01-11T02:16:54.352Z,28.60
2024-01-11T02:17:54.318Z,28.70
2024-01-11T02:18:54.273Z,28.70
2024-01-11T02:19:54.238Z,28.50
2024-01-11T02:20:54.224Z,30.00
2024-01-11T02:21:54.192Z,30.20
2024-01-11T02:22:54.264Z,28.70
2024-01-11T02:23:54.149Z,27.70
2024-01-11T02:24:54.204Z,28.60
2024-01-11T02:25:54.157Z,29.60
2024-01-11T02:26:54.157Z,29.60
2024-01-11T02:27:54.125Z,30.20
2024-01-11T02:28:55.013Z,28.80
2024-01-11T02:29:54.090Z,29.60
2024-01-11T02:30:54.155Z,27.90
2024-01-11T02:31:54.067Z,28.80
2024-01-11T02:32:54.339Z,28.30
2024-01-11T02:33:54.128Z,29.60
2024-01-11T02:34:54.050Z,29.90
2024-01-11T02:35:54.147Z,28.80
2024-01-11T02:36:54.020Z,27.80
2024-01-11T02:37:54.037Z,29.80
2024-01-11T02:38:53.978Z,29.40
2024-01-11T02:39:53.941Z,30.30
2024-01-11T02:40:53.983Z,29.20
2024-01-11T02:41:53.968Z,30.20
2024-01-11T02:42:53.984Z,30.00
2024-01-11T02:43:53.956Z,29.60
2024-01-11T02:44:53.913Z,29.50
2024-01-11T02:45:53.871Z,29.20
2024-01-11T02:46:53.964Z,30.50
2024-01-11T02:47:54.019Z,29.60
2024-01-11T02:48:54.082Z,30.50
2024-01-11T02:49:53.858Z,30.40
2024-01-11T02:50:53.944Z,29.20
2024-01-11T02:51:53.803Z,30.20
2024-01-11T02:52:53.884Z,30.00
2024-01-11T02:53:53.778Z,29.20
2024-01-11T02:54:53.798Z,29.40
2024-01-11T02:55:53.790Z,30.40
2024-01-11T02:56:53.886Z,27.90
2024-01-11T02:57:53.749Z,29.40
2024-01-11T02:58:53.738Z,28.60
2024-01-11T02:59:53.729Z,29.00
2024-01-11T03:00:53.755Z,29.00
2024-01-11T03:01:53.723Z,29.00
2024-01-11T03:02:53.691Z,28.00
2024-01-11T03:03:53.699Z,28.30
2024-01-11T03:04:53.696Z,28.70
2024-01-11T03:05:53.760Z,29.70
2024-01-11T03:06:53.666Z,29.00
2024-01-11T03:07:53.686Z,29.60
2024-01-11T03:08:53.620Z,29.10
2024-01-11T03:09:54.593Z,29.60
2024-01-11T03:10:53.675Z,28.70
2024-01-11T03:11:53.601Z,28.70
2024-01-11T03:12:53.559Z,28.20
2024-01-11T03:13:53.653Z,27.50
2024-01-11T03:14:53.494Z,29.20
2024-01-11T03:15:53.511Z,28.70
2024-01-11T03:16:53.514Z,28.50
2024-01-11T03:17:53.735Z,28.30
2024-01-11T03:18:53.564Z,28.40
2024-01-11T03:19:53.536Z,28.20
2024-01-11T03:20:53.477Z,27.90
2024-01-11T03:21:53.457Z,28.30
2024-01-11T03:22:53.428Z,28.10
2024-01-11T03:23:53.406Z,26.80
2024-01-11T03:24:53.472Z,27.60
2024-01-11T03:25:53.407Z,28.60
2024-01-11T03:26:53.358Z,26.70
2024-01-11T03:27:53.378Z,26.60
2024-01-11T03:28:53.363Z,28.10
2024-01-11T03:29:53.419Z,28.30
2024-01-11T03:30:53.364Z,28.30
2024-01-11T03:31:53.308Z,28.10
2024-01-11T03:32:53.445Z,27.00
2024-01-11T03:33:53.446Z,28.40
2024-01-11T03:34:53.255Z,28.80
2024-01-11T03:35:53.303Z,27.10
2024-01-11T03:36:53.279Z,27.70
2024-01-11T03:37:53.246Z,28.10
2024-01-11T03:38:53.272Z,28.00
2024-01-11T03:39:53.232Z,28.30
2024-01-11T03:40:53.185Z,26.30
2024-01-11T03:41:53.210Z,29.10
2024-01-11T03:42:53.161Z,28.70
2024-01-11T03:43:53.185Z,29.60
2024-01-11T03:44:53.122Z,29.10
2024-01-11T03:45:53.139Z,28.30
2024-01-11T03:46:53.127Z,30.00
2024-01-11T03:47:53.178Z,27.80
2024-01-11T03:48:53.202Z,26.80
2024-01-11T03:49:53.096Z,29.00
2024-01-11T03:50:53.037Z,28.20
2024-01-11T03:51:53.065Z,26.30
2024-01-11T03:52:53.049Z,28.10
2024-01-11T03:53:53.110Z,26.80
2024-01-11T03:54:52.998Z,26.90
2024-01-11T03:55:53.001Z,26.20
2024-01-11T03:56:53.007Z,26.60
2024-01-11T03:57:53.009Z,25.50
2024-01-11T03:58:52.957Z,27.50
2024-01-11T03:59:52.987Z,26.80
2024-01-11T04:00:52.986Z,28.20
2024-01-11T04:01:52.978Z,27.60
2024-01-11T04:02:53.164Z,27.20
2024-01-11T04:03:52.961Z,28.10
2024-01-11T04:04:52.909Z,26.90
2024-01-11T04:05:53.001Z,26.20
2024-01-11T04:06:52.866Z,27.50
2024-01-11T04:07:52.888Z,27.30
2024-01-11T04:08:52.851Z,27.10
2024-01-11T04:09:52.843Z,26.30
2024-01-11T04:10:52.831Z,26.30
2024-01-11T04:11:52.832Z,28.40
2024-01-11T04:12:52.823Z,27.10
2024-01-11T04:13:52.786Z,27.70
2024-01-11T04:14:52.776Z,27.10
2024-01-11T04:15:52.758Z,26.80
2024-01-11T04:16:52.716Z,27.10
2024-01-11T04:17:52.882Z,27.40
2024-01-11T04:18:52.735Z,27.10
2024-01-11T04:19:52.718Z,26.60
2024-01-11T04:20:52.684Z,25.80
2024-01-11T04:21:52.751Z,26.80
2024-01-11T04:22:52.653Z,26.80
2024-01-11T04:23:52.690Z,28.00
2024-01-11T04:24:52.647Z,28.60
2024-01-11T04:25:52.644Z,27.20
2024-01-11T04:26:52.623Z,26.70
2024-01-11T04:27:52.635Z,25.80
2024-01-11T04:28:52.604Z,26.00
2024-01-11T04:29:52.638Z,27.40
2024-01-11T04:30:52.626Z,25.70
2024-01-11T04:31:53.113Z,26.70
2024-01-11T04:32:52.591Z,25.80
2024-01-11T04:33:52.678Z,25.70
2024-01-11T04:34:52.496Z,25.80
2024-01-11T04:35:52.583Z,27.10
2024-01-11T04:36:52.550Z,28.00
2024-01-11T04:37:52.522Z,27.50
2024-01-11T04:38:52.474Z,28.10
2024-01-11T04:39:52.476Z,27.30
2024-01-11T04:40:52.439Z,28.80
2024-01-11T04:41:52.454Z,27.70
2024-01-11T04:42:52.434Z,27.70
2024-01-11T04:43:52.438Z,27.60
2024-01-11T04:44:52.441Z,28.20
2024-01-11T04:45:52.380Z,29.10
2024-01-11T04:46:52.395Z,29.00
2024-01-11T04:47:52.497Z,29.50
2024-01-11T04:48:52.464Z,28.50
2024-01-11T04:49:52.358Z,28.20
2024-01-11T04:50:52.403Z,28.80
2024-01-11T04:51:52.339Z,29.70
2024-01-11T04:52:52.283Z,30.40
2024-01-11T04:53:52.335Z,30.80
2024-01-11T04:54:52.256Z,29.50
2024-01-11T04:55:52.254Z,29.70
2024-01-11T04:56:52.245Z,29.40
2024-01-11T04:57:52.253Z,29.00
2024-01-11T04:58:52.203Z,29.00
2024-01-11T04:59:52.214Z,29.70
2024-01-11T05:00:52.237Z,28.50
2024-01-11T05:01:52.193Z,28.60
2024-01-11T05:02:52.213Z,30.20
2024-01-11T05:03:52.249Z,29.40
2024-01-11T05:04:52.129Z,31.80
2024-01-11T05:05:52.232Z,31.20
2024-01-11T05:06:52.168Z,32.60
2024-01-11T05:07:52.132Z,31.30
2024-01-11T05:08:52.080Z,30.90
2024-01-11T05:09:52.145Z,28.90
2024-01-11T05:10:52.078Z,31.00
2024-01-11T05:11:52.108Z,28.50
2024-01-11T05:12:52.034Z,28.40
2024-01-11T05:13:52.035Z,28.90
2024-01-11T05:14:52.061Z,29.00
2024-01-11T05:15:52.046Z,29.60
2024-01-11T05:16:51.974Z,28.50
2024-01-11T05:17:52.295Z,29.30
2024-01-11T05:18:52.138Z,30.40
2024-01-11T05:19:51.966Z,29.50
2024-01-11T05:20:51.974Z,27.90
2024-01-11T05:21:51.954Z,27.70
2024-01-11T05:22:51.930Z,26.20
2024-01-11T05:23:51.913Z,27.10
2024-01-11T05:24:51.901Z,26.60
2024-01-11T05:25:51.889Z,27.80
2024-01-11T05:26:51.908Z,25.60
2024-01-11T05:27:51.885Z,25.20
2024-01-11T05:28:51.843Z,25.70
2024-01-11T05:29:51.854Z,26.50
2024-01-11T05:30:51.876Z,27.20
2024-01-11T05:31:51.964Z,26.90
2024-01-11T05:32:51.870Z,26.50
2024-01-11T05:33:51.886Z,28.40
2024-01-11T05:34:51.786Z,27.10
2024-01-11T05:35:51.772Z,26.50
2024-01-11T05:36:51.753Z,26.70
2024-01-11T05:37:51.764Z,26.90
2024-01-11T05:38:51.703Z,27.00
2024-01-11T05:39:51.783Z,28.40
2024-01-11T05:40:51.677Z,27.50
2024-01-11T05:41:51.707Z,26.70
2024-01-11T05:42:51.669Z,29.50
2024-01-11T05:43:51.679Z,25.20
2024-01-11T05:44:51.670Z,27.30
2024-01-11T05:45:51.661Z,26.80
2024-01-11T05:46:51.607Z,25.80
2024-01-11T05:47:51.713Z,27.70
2024-01-11T05:48:51.761Z,29.10
2024-01-11T05:49:51.616Z,27.30
2024-01-11T05:50:51.583Z,27.60
2024-01-11T05:51:51.586Z,26.10
2024-01-11T05:52:51.541Z,26.20
2024-01-11T05:53:51.541Z,26.60
2024-01-11T05:54:51.554Z,28.30
2024-01-11T05:55:53.701Z,24.90
2024-01-11T05:56:51.482Z,27.00
2024-01-11T05:57:51.512Z,26.20
2024-01-11T05:58:51.477Z,27.20
2024-01-11T05:59:51.492Z,25.60
2024-01-11T06:00:51.494Z,25.60
2024-01-11T06:01:51.451Z,27.30
2024-01-11T06:02:51.405Z,25.30
2024-01-11T06:03:51.543Z,27.90
2024-01-11T06:04:51.388Z,27.00
2024-01-11T06:05:51.518Z,25.70
2024-01-11T06:06:51.386Z,25.40
2024-01-11T06:07:51.419Z,25.90
2024-01-11T06:08:51.345Z,26.90
2024-01-11T06:09:51.349Z,25.60
2024-01-11T06:10:51.304Z,26.50
2024-01-11T06:11:51.343Z,27.70
2024-01-11T06:12:51.305Z,26.20
2024-01-11T06:13:51.298Z,25.70
2024-01-11T06:14:51.256Z,26.80
2024-01-11T06:15:51.278Z,26.90
2024-01-11T06:16:51.271Z,26.50
2024-01-11T06:17:51.420Z,26.80
2024-01-11T06:18:51.310Z,26.80
2024-01-11T06:19:51.244Z,27.30
2024-01-11T06:20:51.237Z,26.20
2024-01-11T06:21:51.252Z,27.40
2024-01-11T06:22:51.177Z,25.60
2024-01-11T06:23:51.228Z,26.80
2024-01-11T06:24:51.150Z,27.20
2024-01-11T06:25:51.172Z,25.40
2024-01-11T06:26:51.120Z,25.50
2024-01-11T06:27:51.147Z,27.80
2024-01-11T06:28:51.085Z,26.60
2024-01-11T06:29:51.110Z,28.00
2024-01-11T06:30:51.187Z,26.00
2024-01-11T06:31:51.110Z,26.70
2024-01-11T06:32:51.157Z,26.00
2024-01-11T06:33:51.715Z,25.00
2024-01-11T06:34:51.095Z,26.30
2024-01-11T06:35:51.109Z,27.10
2024-01-11T06:36:51.021Z,26.00
2024-01-11T06:37:50.997Z,25.60
2024-01-11T06:38:51.016Z,26.30
2024-01-11T06:39:51.028Z,25.40
2024-01-11T06:40:51.009Z,27.60
2024-01-11T06:41:50.952Z,26.70
2024-01-11T06:42:50.930Z,27.20
2024-01-11T06:43:50.906Z,26.80
2024-01-11T06:44:51.042Z,28.20
2024-01-11T06:45:50.947Z,27.50
2024-01-11T06:46:50.841Z,26.90
2024-01-11T06:47:51.077Z,26.30
2024-01-11T06:48:50.997Z,26.80
2024-01-11T06:49:51.597Z,27.30
2024-01-11T06:50:50.893Z,27.10
2024-01-11T06:51:50.869Z,26.40
2024-01-11T06:52:50.793Z,28.10
2024-01-11T06:53:50.828Z,27.50
2024-01-11T06:54:50.753Z,26.90
2024-01-11T06:55:50.813Z,27.20
2024-01-11T06:56:50.806Z,26.80
2024-01-11T06:57:50.746Z,27.10
2024-01-11T06:58:50.742Z,27.50
2024-01-11T06:59:50.743Z,27.20
2024-01-11T07:00:50.737Z,28.60
2024-01-11T07:01:50.686Z,28.20
2024-01-11T07:02:50.783Z,26.70
2024-01-11T07:03:50.727Z,28.00
2024-01-11T07:04:50.674Z,26.50
2024-01-11T07:05:50.761Z,26.60
2024-01-11T07:06:50.629Z,27.40
2024-01-11T07:07:50.661Z,27.40
2024-01-11T07:08:50.919Z,27.00
2024-01-11T07:09:50.585Z,27.90
2024-01-11T07:10:51.996Z,28.60
2024-01-11T07:11:50.663Z,28.50
2024-01-11T07:12:50.552Z,27.70
2024-01-11T07:13:50.562Z,27.10
2024-01-11T07:14:50.661Z,27.40
2024-01-11T07:15:50.680Z,28.40
2024-01-11T07:16:50.516Z,26.90
2024-01-11T07:17:50.590Z,28.20
2024-01-11T07:18:50.581Z,28.70
2024-01-11T07:19:50.458Z,26.70
2024-01-11T07:20:50.556Z,26.70
2024-01-11T07:21:50.412Z,26.30
2024-01-11T07:22:50.485Z,27.10
2024-01-11T07:23:50.440Z,26.10
2024-01-11T07:24:50.411Z,28.30
2024-01-11T07:25:50.417Z,28.70
2024-01-11T07:26:50.689Z,26.50
2024-01-11T07:27:50.514Z,27.50
2024-01-11T07:28:50.356Z,26.70
2024-01-11T07:29:50.373Z,27.00
2024-01-11T07:30:50.398Z,29.40
2024-01-11T07:31:50.304Z,28.00
2024-01-11T07:32:50.657Z,27.80
2024-01-11T07:33:50.461Z,26.50
2024-01-11T07:34:50.285Z,28.70
2024-01-11T07:35:50.246Z,27.50
2024-01-11T07:36:50.289Z,28.20
2024-01-11T07:37:50.263Z,26.80
2024-01-11T07:38:50.307Z,27.10
2024-01-11T07:39:50.215Z,27.40
2024-01-11T07:40:50.216Z,26.70
2024-01-11T07:41:50.193Z,27.40
2024-01-11T07:42:50.196Z,28.80
2024-01-11T07:43:54.411Z,27.80
2024-01-11T07:44:50.210Z,32.30
2024-01-11T07:45:50.136Z,30.90
2024-01-11T07:46:53.730Z,31.90
2024-01-11T07:47:50.185Z,33.10
2024-01-11T07:48:50.919Z,33.70
2024-01-11T07:49:50.117Z,33.20
2024-01-11T07:50:50.130Z,33.20
2024-01-11T07:51:50.222Z,33.90
2024-01-11T07:52:50.075Z,33.00
2024-01-11T07:53:50.038Z,32.90
2024-01-11T07:54:50.060Z,34.50
2024-01-11T07:55:50.022Z,32.60
2024-01-11T07:56:50.093Z,33.80
2024-01-11T07:57:50.035Z,32.00
2024-01-11T07:58:50.409Z,33.80
2024-01-11T07:59:50.046Z,33.10
2024-01-11T08:00:50.002Z,32.70
2024-01-11T08:01:49.941Z,34.50
2024-01-11T08:02:50.060Z,33.10
2024-01-11T08:03:49.970Z,33.20
2024-01-11T08:04:50.066Z,32.60
2024-01-11T08:05:49.967Z,34.90
2024-01-11T08:06:49.923Z,36.20
2024-01-11T08:07:49.849Z,37.30
2024-01-11T08:08:49.987Z,36.60
2024-01-11T08:09:49.839Z,36.50
2024-01-11T08:10:49.822Z,34.30
2024-01-11T08:11:51.406Z,34.60
2024-01-11T08:12:49.820Z,36.80
2024-01-11T08:13:49.778Z,34.30
2024-01-11T08:14:49.809Z,36.60
2024-01-11T08:15:49.739Z,34.90
2024-01-11T08:16:49.781Z,37.10
2024-01-11T08:17:49.855Z,35.10
2024-01-11T08:18:49.892Z,35.30
2024-01-11T08:19:49.716Z,32.40
2024-01-11T08:20:49.891Z,35.40
2024-01-11T08:21:49.652Z,34.80
2024-01-11T08:22:49.710Z,34.70
2024-01-11T08:23:49.774Z,34.10
2024-01-11T08:24:49.669Z,35.90
2024-01-11T08:25:49.634Z,34.10
2024-01-11T08:26:49.765Z,35.10
2024-01-11T08:27:49.600Z,34.60
2024-01-11T08:28:49.626Z,32.40
2024-01-11T08:29:49.606Z,32.90
2024-01-11T08:30:49.699Z,30.90
2024-01-11T08:31:49.547Z,29.40
2024-01-11T08:32:49.666Z,31.20
2024-01-11T08:33:49.703Z,30.90
2024-01-11T08:34:49.623Z,29.80
2024-01-11T08:35:49.572Z,30.20
2024-01-11T08:36:49.522Z,29.80
2024-01-11T08:37:49.462Z,30.40
2024-01-11T08:38:49.658Z,30.90
2024-01-11T08:39:49.487Z,29.70
2024-01-11T08:40:49.493Z,30.10
2024-01-11T08:41:49.450Z,29.00
2024-01-11T08:42:49.440Z,30.30
2024-01-11T08:43:49.412Z,28.50
2024-01-11T08:44:49.505Z,30.20
2024-01-11T08:45:49.386Z,29.50
2024-01-11T08:46:49.423Z,29.30
2024-01-11T08:47:49.497Z,31.90
2024-01-11T08:48:49.528Z,28.50
2024-01-11T08:49:49.369Z,29.50
2024-01-11T08:50:49.534Z,29.50
2024-01-11T08:51:49.358Z,30.70
2024-01-11T08:52:49.318Z,29.70
2024-01-11T08:53:49.468Z,28.60
2024-01-11T08:54:49.303Z,29.50
2024-01-11T08:55:49.286Z,29.90
2024-01-11T08:56:49.367Z,28.90
2024-01-11T08:57:49.292Z,29.20
2024-01-11T08:58:49.254Z,29.10
2024-01-11T08:59:49.261Z,29.80
2024-01-11T09:00:49.362Z,28.50
2024-01-11T09:01:57.358Z,28.50
2024-01-11T09:02:49.660Z,28.80
2024-01-11T09:03:49.549Z,28.40
2024-01-11T09:04:49.177Z,28.60
2024-01-11T09:05:49.412Z,29.50
2024-01-11T09:06:49.175Z,29.00
2024-01-11T09:07:50.963Z,27.50
2024-01-11T09:08:49.170Z,28.60
2024-01-11T09:09:54.303Z,28.70
2024-01-11T09:10:49.086Z,27.20
2024-01-11T09:11:49.097Z,27.40
2024-01-11T09:12:49.066Z,28.10
2024-01-11T09:13:49.067Z,27.50
2024-01-11T09:14:49.101Z,28.40
2024-01-11T09:15:49.012Z,27.40
2024-01-11T09:16:49.011Z,27.80
2024-01-11T09:17:49.072Z,27.30
2024-01-11T09:18:49.032Z,28.40
2024-01-11T09:19:49.048Z,29.20
2024-01-11T09:20:49.001Z,28.80
2024-01-11T09:21:48.932Z,28.90
2024-01-11T09:22:48.940Z,28.60
2024-01-11T09:23:48.946Z,28.40
2024-01-11T09:24:48.945Z,30.20
2024-01-11T09:25:48.883Z,28.90
2024-01-11T09:26:48.934Z,28.50
2024-01-11T09:27:48.859Z,27.60
2024-01-11T09:28:48.867Z,27.80
2024-01-11T09:29:50.037Z,28.60
2024-01-11T09:30:48.865Z,27.40
2024-01-11T09:31:48.808Z,28.20
2024-01-11T09:32:49.119Z,29.20
2024-01-11T09:33:48.855Z,27.10
2024-01-11T09:34:48.807Z,28.70
2024-01-11T09:35:48.764Z,28.40
2024-01-11T09:36:48.754Z,27.90
2024-01-11T09:37:48.715Z,28.10
2024-01-11T09:38:48.813Z,26.80
2024-01-11T09:39:48.723Z,29.30
2024-01-11T09:40:48.718Z,27.00
2024-01-11T09:41:48.676Z,26.10
2024-01-11T09:42:48.695Z,29.80
2024-01-11T09:43:48.641Z,29.90
2024-01-11T09:44:48.697Z,26.40
2024-01-11T09:45:48.621Z,29.30
2024-01-11T09:46:48.658Z,28.40
2024-01-11T09:47:48.629Z,27.70
2024-01-11T09:48:48.643Z,29.20
2024-01-11T09:49:48.583Z,27.90
2024-01-11T09:50:48.689Z,28.30
2024-01-11T09:51:48.567Z,27.80
2024-01-11T09:52:48.587Z,27.60
2024-01-11T09:53:48.538Z,27.70
2024-01-11T09:54:48.567Z,29.30
2024-01-11T09:55:48.482Z,29.10
2024-01-11T09:56:48.578Z,28.20
2024-01-11T09:57:48.466Z,30.20
2024-01-11T09:58:48.474Z,29.50
2024-01-11T09:59:48.521Z,29.40
2024-01-11T10:00:48.434Z,28.80
2024-01-11T10:01:48.441Z,28.60
2024-01-11T10:02:48.666Z,26.60
2024-01-11T10:03:48.435Z,30.40
2024-01-11T10:04:48.407Z,28.90
2024-01-11T10:05:48.376Z,27.90
2024-01-11T10:06:48.393Z,27.90
2024-01-11T10:07:48.362Z,28.40
2024-01-11T10:08:48.397Z,28.70
2024-01-11T10:09:48.328Z,28.80
2024-01-11T10:10:48.307Z,27.70
2024-01-11T10:11:48.351Z,29.70
2024-01-11T10:12:48.326Z,27.60
2024-01-11T10:13:48.280Z,26.90
2024-01-11T10:14:48.337Z,28.30
2024-01-11T10:15:48.242Z,26.40
2024-01-11T10:16:48.250Z,28.20
2024-01-11T10:17:48.499Z,30.10
2024-01-11T10:18:48.405Z,28.20
2024-01-11T10:19:48.331Z,28.70
2024-01-11T10:20:48.321Z,28.80
2024-01-11T10:21:48.146Z,29.20
2024-01-11T10:22:48.173Z,28.50
2024-01-11T10:23:48.200Z,28.50
2024-01-11T10:24:48.130Z,28.40
2024-01-11T10:25:48.110Z,30.00
2024-01-11T10:26:48.229Z,29.60
2024-01-11T10:27:48.067Z,28.80
2024-01-11T10:28:48.113Z,29.00
2024-01-11T10:29:48.083Z,28.20
2024-01-11T10:30:48.080Z,28.60
2024-01-11T10:31:48.065Z,29.90
2024-01-11T10:32:48.195Z,29.20
2024-01-11T10:33:48.066Z,29.50
2024-01-11T10:34:47.997Z,27.70
2024-01-11T10:35:48.088Z,27.70
2024-01-11T10:36:47.962Z,30.60
2024-01-11T10:37:47.980Z,28.30
2024-01-11T10:38:48.015Z,28.80
2024-01-11T10:39:47.962Z,30.70
2024-01-11T10:40:47.971Z,28.60
2024-01-11T10:41:47.900Z,28.90
2024-01-11T10:42:47.867Z,28.30
2024-01-11T10:43:47.915Z,28.50
2024-01-11T10:44:47.892Z,28.40
2024-01-11T10:45:47.865Z,31.00
2024-01-11T10:46:47.850Z,29.40
2024-01-11T10:47:47.917Z,31.10
2024-01-11T10:48:47.849Z,29.00
2024-01-11T10:49:47.821Z,28.00
2024-01-11T10:50:47.961Z,30.70
2024-01-11T10:51:47.790Z,30.80
2024-01-11T10:52:47.786Z,28.80
2024-01-11T10:53:47.893Z,28.20
2024-01-11T10:54:47.729Z,27.60
2024-01-11T10:55:47.752Z,29.00
2024-01-11T10:56:47.734Z,28.50
2024-01-11T10:57:48.196Z,29.00
2024-01-11T10:58:48.089Z,28.60
2024-01-11T10:59:47.838Z,29.10
2024-01-11T11:00:47.744Z,28.00
2024-01-11T11:01:47.722Z,29.80
2024-01-11T11:02:47.713Z,29.00
2024-01-11T11:03:47.668Z,31.20
2024-01-11T11:04:47.626Z,28.90
2024-01-11T11:05:47.866Z,27.60
2024-01-11T11:06:47.610Z,29.40
2024-01-11T11:07:47.578Z,28.80
2024-01-11T11:08:47.589Z,29.80
2024-01-11T11:09:47.544Z,29.80
2024-01-11T11:10:47.536Z,30.00
2024-01-11T11:11:47.567Z,31.00
2024-01-11T11:12:47.519Z,30.00
2024-01-11T11:13:47.533Z,31.20
2024-01-11T11:14:47.545Z,30.10
2024-01-11T11:15:47.480Z,28.10
2024-01-11T11:16:47.446Z,27.90
2024-01-11T11:17:47.532Z,28.50
2024-01-11T11:18:47.505Z,30.70
2024-01-11T11:19:47.401Z,31.60
2024-01-11T11:20:47.452Z,28.30
2024-01-11T11:21:47.445Z,27.10
2024-01-11T11:22:47.362Z,29.20
2024-01-11T11:23:47.545Z,27.60
2024-01-11T11:24:47.389Z,28.50
2024-01-11T11:25:47.345Z,27.90
2024-01-11T11:26:47.410Z,27.90
2024-01-11T11:27:47.306Z,28.30
2024-01-11T11:28:47.306Z,28.80
2024-01-11T11:29:47.373Z,29.40
2024-01-11T11:30:47.355Z,28.30
2024-01-11T11:31:47.280Z,27.50
2024-01-11T11:32:47.336Z,27.20
2024-01-11T11:33:47.387Z,29.60
2024-01-11T11:34:47.198Z,28.00
2024-01-11T11:35:47.269Z,28.00
2024-01-11T11:36:47.230Z,27.60
2024-01-11T11:37:47.171Z,27.60
2024-01-11T11:38:47.204Z,28.20
2024-01-11T11:39:47.140Z,32.20
2024-01-11T11:40:47.160Z,28.70
2024-01-11T11:41:47.110Z,28.90
2024-01-11T11:42:47.142Z,28.70
2024-01-11T11:43:47.115Z,28.20
2024-01-11T11:44:47.127Z,29.70
2024-01-11T11:45:47.072Z,27.60
2024-01-11T11:46:47.118Z,28.70
2024-01-11T11:47:47.134Z,28.50
2024-01-11T11:48:47.172Z,29.50
2024-01-11T11:49:47.024Z,31.00
2024-01-11T11:50:47.095Z,28.30
2024-01-11T11:51:47.035Z,27.60
2024-01-11T11:52:47.113Z,29.00
2024-01-11T11:53:47.135Z,28.00
2024-01-11T11:54:46.972Z,29.30
2024-01-11T11:55:46.931Z,28.10
2024-01-11T11:56:47.002Z,30.50
2024-01-11T11:57:46.931Z,29.40
2024-01-11T11:58:46.935Z,28.30
2024-01-11T11:59:46.913Z,28.70
2024-01-11T12:00:46.942Z,28.80
2024-01-11T12:01:46.882Z,29.00
2024-01-11T12:02:46.986Z,29.10
2024-01-11T12:03:46.866Z,27.80
2024-01-11T12:04:46.908Z,30.20
2024-01-11T12:05:46.889Z,28.00
2024-01-11T12:06:46.978Z,28.20
2024-01-11T12:07:46.802Z,27.40
2024-01-11T12:08:46.897Z,29.50
2024-01-11T12:09:46.768Z,30.90
2024-01-11T12:10:46.799Z,28.30
2024-01-11T12:11:51.989Z,27.60
2024-01-11T12:12:46.836Z,29.00
2024-01-11T12:13:46.709Z,29.30
2024-01-11T12:14:46.744Z,28.10
2024-01-11T12:15:46.681Z,29.00
2024-01-11T12:16:46.692Z,28.00
2024-01-11T12:17:46.875Z,29.70
2024-01-11T12:18:46.882Z,27.60
2024-01-11T12:19:46.630Z,27.70
2024-01-11T12:20:46.766Z,28.00
2024-01-11T12:21:46.601Z,28.80
2024-01-11T12:22:46.637Z,28.70
2024-01-11T12:23:46.643Z,28.60
2024-01-11T12:24:46.624Z,28.90
2024-01-11T12:25:46.561Z,30.00
2024-01-11T12:26:46.587Z,28.60
2024-01-11T12:27:46.511Z,28.70
2024-01-11T12:28:46.555Z,28.90
2024-01-11T12:29:53.142Z,28.70
2024-01-11T12:30:46.697Z,29.20
2024-01-11T12:31:46.465Z,31.50
2024-01-11T12:32:48.209Z,27.30
2024-01-11T12:33:46.550Z,29.30
2024-01-11T12:34:46.597Z,28.90
2024-01-11T12:35:46.603Z,29.70
2024-01-11T12:36:46.446Z,30.40
2024-01-11T12:37:46.390Z,28.70
2024-01-11T12:38:48.294Z,30.20
2024-01-11T12:39:46.429Z,28.10
2024-01-11T12:40:46.455Z,29.00
2024-01-11T12:41:46.452Z,30.50
2024-01-11T12:42:46.411Z,31.40
2024-01-11T12:43:46.348Z,28.80
2024-01-11T12:44:48.612Z,29.40
2024-01-11T12:45:46.422Z,27.70
2024-01-11T12:46:46.345Z,26.40
2024-01-11T12:47:46.469Z,28.60
2024-01-11T12:48:46.374Z,29.20
2024-01-11T12:49:46.244Z,28.20
2024-01-11T12:50:46.316Z,30.60
2024-01-11T12:51:46.213Z,26.80
2024-01-11T12:52:46.247Z,29.50